Time;durP1;ratioP1;P1;durP2;ratioP2;P2;SDS_P1;SDS_P2;PMS_P1;PMS_P2;Temp;Humidity;BMP_temperature;BMP_pressure;BME280_temperature;BME280_humidity;BME280_pressure;Samples;Min_cycle;Max_cycle;Signal;HPM_P1;HPM_P2
2021/06/13 00:01:32;;;;;;;14.50;9.50;;;18.10;99.90;;;;;;5050911;28;20606;-54
2021/06/13 00:03:58;;;;;;;14.30;9.10;;;18.20;99.90;;;;;;5050863;28;20528;-50
2021/06/13 00:06:24;;;;;;;17.70;10.13;;;18.20;99.90;;;;;;5051383;28;20389;-49
2021/06/13 00:08:49;;;;;;;15.80;9.73;;;18.20;99.90;;;;;;5050219;28;21028;-50
2021/06/13 00:11:15;;;;;;;14.33;8.80;;;18.20;99.90;;;;;;5051359;28;20468;-51
2021/06/13 00:13:42;;;;;;;13.63;8.90;;;18.20;99.90;;;;;;5050018;28;20399;-51
2021/06/13 00:16:08;;;;;;;17.35;10.10;;;18.20;99.90;;;;;;5051150;28;20386;-52
2021/06/13 00:18:35;;;;;;;16.98;9.10;;;18.30;99.90;;;;;;5050457;28;20401;-53
2021/06/13 00:21:02;;;;;;;13.67;8.90;;;18.30;99.90;;;;;;5051122;28;20385;-51
2021/06/13 00:23:28;;;;;;;14.43;8.80;;;18.30;99.90;;;;;;5050860;28;20392;-51
2021/06/13 00:25:53;;;;;;;14.88;8.90;;;18.30;99.90;;;;;;5050131;28;20386;-49
2021/06/13 00:28:19;;;;;;;14.73;9.27;;;18.30;99.90;;;;;;5051301;28;20905;-50
2021/06/13 00:30:46;;;;;;;16.02;8.98;;;18.30;99.90;;;;;;5050017;28;20381;-50
2021/06/13 00:33:11;;;;;;;13.73;9.10;;;18.30;99.90;;;;;;5051017;28;20385;-49
2021/06/13 00:35:37;;;;;;;16.53;10.20;;;18.40;99.90;;;;;;5049733;28;20388;-50
2021/06/13 00:38:04;;;;;;;15.98;9.00;;;18.50;99.90;;;;;;5050534;28;20871;-50
2021/06/13 00:40:31;;;;;;;13.55;9.20;;;18.40;99.90;;;;;;5050753;28;20434;-52
2021/06/13 00:42:56;;;;;;;15.57;9.70;;;18.30;99.90;;;;;;5050209;28;20513;-50
2021/06/13 00:45:23;;;;;;;14.02;9.45;;;18.30;99.90;;;;;;5050398;28;20808;-49
2021/06/13 00:47:50;;;;;;;14.48;9.35;;;18.20;99.90;;;;;;5049662;28;20527;-50
2021/06/13 00:50:24;;;;;;;13.75;9.20;;;18.10;99.90;;;;;;5050457;28;20476;-50
2021/06/13 00:52:50;;;;;;;13.80;8.82;;;18.00;99.90;;;;;;5049150;28;20415;-50
2021/06/13 00:55:16;;;;;;;13.23;9.07;;;17.80;99.90;;;;;;5050212;28;20386;-49
2021/06/13 00:57:41;;;;;;;12.70;8.57;;;17.70;99.90;;;;;;5049345;28;20384;-50
2021/06/13 01:00:08;;;;;;;16.47;9.07;;;17.60;99.90;;;;;;5050073;28;20374;-49
2021/06/13 01:02:34;;;;;;;14.55;8.55;;;17.60;99.90;;;;;;5049938;28;20381;-53
2021/06/13 01:04:59;;;;;;;14.93;8.82;;;17.60;99.90;;;;;;5049910;28;20417;-50
2021/06/13 01:07:51;;;;;;;15.10;8.93;;;17.40;99.90;;;;;;5048879;28;20385;-49
2021/06/13 01:10:58;;;;;;;14.15;9.50;;;17.30;99.90;;;;;;5050143;28;20468;-49
2021/06/13 01:13:46;;;;;;;14.48;9.20;;;17.20;99.90;;;;;;5029765;28;20385;-50
2021/06/13 01:16:19;;;;;;;17.17;9.98;;;17.00;99.90;;;;;;5050240;28;20392;-50
2021/06/13 01:18:54;;;;;;;14.10;8.50;;;17.10;99.90;;;;;;5049066;28;20377;-49
2021/06/13 01:21:28;;;;;;;12.52;8.88;;;17.10;99.90;;;;;;5049961;28;20393;-50
2021/06/13 01:24:24;;;;;;;13.55;8.45;;;17.00;99.90;;;;;;5048971;28;20377;-50
2021/06/13 01:27:05;;;;;;;15.27;8.50;;;17.00;99.90;;;;;;5048922;28;20378;-50
2021/06/13 01:29:38;;;;;;;16.98;10.00;;;17.10;99.90;;;;;;5049670;28;20492;-53
2021/06/13 01:32:15;;;;;;;16.80;9.07;;;17.10;99.90;;;;;;5049477;28;20879;-50
2021/06/13 01:34:50;;;;;;;15.93;8.70;;;17.00;99.90;;;;;;5049160;28;20462;-50
2021/06/13 01:37:18;;;;;;;14.20;8.73;;;17.00;99.90;;;;;;5049944;28;20373;-50
2021/06/13 01:39:47;;;;;;;16.95;9.77;;;17.00;99.90;;;;;;5048897;28;20419;-50
2021/06/13 01:42:15;;;;;;;16.73;10.25;;;16.90;99.90;;;;;;5049726;28;20475;-49
2021/06/13 01:44:43;;;;;;;16.20;9.70;;;16.90;99.90;;;;;;5049223;28;20393;-53
2021/06/13 01:47:09;;;;;;;15.70;9.60;;;16.80;99.90;;;;;;5049530;28;20382;-50
2021/06/13 01:49:39;;;;;;;15.87;9.30;;;16.80;99.90;;;;;;5048817;28;20444;-54
2021/06/13 01:52:06;;;;;;;15.95;10.00;;;16.80;99.90;;;;;;5049880;28;20472;-49
2021/06/13 01:54:33;;;;;;;15.57;9.83;;;16.70;99.90;;;;;;5049162;28;20417;-53
2021/06/13 01:56:59;;;;;;;17.65;10.13;;;16.70;99.90;;;;;;5049369;28;20396;-50
2021/06/13 01:59:25;;;;;;;16.83;10.57;;;16.70;99.90;;;;;;5049492;28;20390;-50
2021/06/13 02:01:55;;;;;;;14.75;9.85;;;16.60;99.90;;;;;;5049013;28;20388;-50
2021/06/13 02:04:24;;;;;;;15.50;9.10;;;16.60;99.90;;;;;;5051432;28;20408;-50
2021/06/13 02:06:57;;;;;;;15.38;10.15;;;16.50;99.90;;;;;;5052874;28;20377;-49
2021/06/13 02:09:24;;;;;;;16.05;9.93;;;16.60;99.90;;;;;;5053574;28;20492;-50
2021/06/13 02:11:51;;;;;;;14.57;9.52;;;16.60;99.90;;;;;;5052659;28;20872;-50
2021/06/13 02:14:24;;;;;;;13.55;9.23;;;16.60;99.90;;;;;;5053457;28;20386;-50
2021/06/13 02:16:51;;;;;;;15.50;9.77;;;16.60;99.90;;;;;;5052552;28;20391;-50
2021/06/13 02:19:23;;;;;;;13.77;8.98;;;16.70;99.90;;;;;;5053240;28;20709;-50
2021/06/13 02:21:55;;;;;;;16.70;9.82;;;16.70;99.90;;;;;;5052547;28;20392;-50
2021/06/13 02:24:26;;;;;;;14.30;9.30;;;16.60;99.90;;;;;;5053182;28;20381;-50
2021/06/13 02:26:53;;;;;;;16.70;9.40;;;16.60;99.90;;;;;;5052188;28;21228;-49
2021/06/13 02:29:19;;;;;;;14.15;9.40;;;16.60;99.90;;;;;;5052960;28;20878;-49
2021/06/13 02:31:47;;;;;;;16.45;8.98;;;16.60;99.90;;;;;;5052231;28;20450;-50
2021/06/13 02:34:20;;;;;;;14.45;9.07;;;16.60;99.90;;;;;;5052906;28;20415;-49
2021/06/13 02:36:48;;;;;;;15.88;9.80;;;16.70;99.90;;;;;;5052451;28;20381;-50
2021/06/13 02:39:14;;;;;;;14.38;9.52;;;16.80;99.90;;;;;;5053114;28;20389;-50
2021/06/13 02:41:39;;;;;;;15.30;9.90;;;16.90;99.90;;;;;;5051945;28;20377;-50
2021/06/13 02:44:05;;;;;;;14.88;8.95;;;16.90;99.90;;;;;;5052861;28;20374;-50
2021/06/13 02:46:31;;;;;;;12.85;8.60;;;16.90;99.90;;;;;;5052782;28;20897;-50
2021/06/13 02:48:57;;;;;;;18.13;9.83;;;17.00;99.90;;;;;;5051794;28;20489;-50
2021/06/13 02:51:36;;;;;;;15.45;9.68;;;16.90;99.90;;;;;;5053409;28;20469;-50
2021/06/13 02:54:06;;;;;;;13.95;9.48;;;16.90;99.90;;;;;;5053203;28;20431;-50
2021/06/13 02:56:55;;;;;;;15.23;8.85;;;16.80;99.90;;;;;;5052524;28;20850;-51
2021/06/13 02:59:38;;;;;;;14.23;9.10;;;16.70;99.90;;;;;;5052663;28;20873;-50
2021/06/13 03:02:07;;;;;;;14.43;8.90;;;16.70;99.90;;;;;;5052561;28;20388;-50
2021/06/13 03:04:34;;;;;;;13.48;8.73;;;16.70;99.90;;;;;;5052116;28;20487;-54
2021/06/13 03:07:01;;;;;;;13.68;8.82;;;16.70;99.90;;;;;;5052207;28;20427;-50
2021/06/13 03:09:29;;;;;;;13.30;8.60;;;16.70;99.90;;;;;;5052542;28;20416;-50
2021/06/13 03:11:57;;;;;;;15.00;9.30;;;16.80;99.90;;;;;;5051666;28;20377;-51
2021/06/13 03:14:23;;;;;;;14.52;8.80;;;16.70;99.90;;;;;;5052423;28;20430;-49
2021/06/13 03:16:50;;;;;;;15.35;8.80;;;16.70;99.90;;;;;;5051522;28;20446;-49
2021/06/13 03:19:17;;;;;;;13.95;8.50;;;16.60;99.90;;;;;;5052419;28;20851;-49
2021/06/13 03:21:50;;;;;;;16.05;8.85;;;16.60;99.90;;;;;;5051588;28;20385;-50
2021/06/13 03:24:18;;;;;;;12.65;8.77;;;16.60;99.90;;;;;;5052297;28;20418;-50
2021/06/13 03:26:44;;;;;;;14.65;8.30;;;16.60;99.90;;;;;;5051447;28;20431;-50
2021/06/13 03:29:11;;;;;;;16.92;8.80;;;16.70;99.90;;;;;;5051767;28;20767;-49
2021/06/13 03:31:37;;;;;;;16.02;9.98;;;16.60;99.90;;;;;;5051515;28;20783;-53
2021/06/13 03:34:05;;;;;;;13.27;8.88;;;16.60;99.90;;;;;;5051772;28;20447;-49
2021/06/13 03:36:32;;;;;;;12.63;8.13;;;16.50;99.90;;;;;;5052041;28;20389;-49
2021/06/13 03:39:00;;;;;;;15.10;8.43;;;16.50;99.90;;;;;;5049792;28;20755;-49
2021/06/13 03:41:26;;;;;;;15.07;8.50;;;16.50;99.90;;;;;;5051909;28;20381;-49
2021/06/13 03:43:53;;;;;;;13.67;8.97;;;16.60;99.90;;;;;;5050814;28;20497;-50
2021/06/13 03:46:20;;;;;;;14.13;8.65;;;16.70;99.90;;;;;;5051648;28;20480;-51
2021/06/13 03:48:50;;;;;;;13.60;7.88;;;16.60;99.90;;;;;;5051295;28;20526;-49
2021/06/13 03:51:19;;;;;;;16.83;9.00;;;16.60;99.90;;;;;;5052042;28;20404;-50
2021/06/13 03:53:48;;;;;;;14.00;8.68;;;16.60;99.90;;;;;;5050835;28;20381;-50
2021/06/13 03:56:18;;;;;;;13.05;9.02;;;16.60;99.90;;;;;;5051574;28;20473;-50
2021/06/13 03:58:45;;;;;;;15.63;8.90;;;16.50;99.90;;;;;;5049569;28;20864;-50
2021/06/13 04:01:16;;;;;;;15.38;9.07;;;16.50;99.90;;;;;;5051525;28;20443;-49
2021/06/13 04:03:47;;;;;;;15.63;8.55;;;16.40;99.90;;;;;;5048966;28;20421;-50
2021/06/13 04:06:14;;;;;;;14.25;8.77;;;16.40;99.90;;;;;;5051483;28;20380;-49
2021/06/13 04:08:40;;;;;;;17.23;8.73;;;16.40;99.90;;;;;;5050538;28;20406;-49
2021/06/13 04:11:10;;;;;;;14.05;8.65;;;16.40;99.90;;;;;;5051386;28;20386;-50
2021/06/13 04:13:36;;;;;;;16.15;8.70;;;16.30;99.90;;;;;;5051098;28;20390;-54
2021/06/13 04:16:07;;;;;;;16.58;9.70;;;16.30;99.90;;;;;;5050866;28;20397;-50
2021/06/13 04:18:37;;;;;;;14.40;8.85;;;16.30;99.90;;;;;;5051204;28;20393;-49
2021/06/13 04:21:04;;;;;;;15.90;8.85;;;16.30;99.90;;;;;;5055255;28;20383;-50
2021/06/13 04:23:31;;;;;;;15.95;8.38;;;16.30;99.90;;;;;;5070815;28;20781;-50
2021/06/13 04:25:58;;;;;;;17.25;8.70;;;16.30;99.90;;;;;;5070338;28;21020;-50
2021/06/13 04:28:24;;;;;;;12.35;8.40;;;16.40;99.90;;;;;;5057202;28;20451;-50
2021/06/13 04:31:11;;;;;;;14.90;8.80;;;16.40;99.90;;;;;;5050100;28;20915;-49
2021/06/13 04:33:38;;;;;;;15.50;8.85;;;16.40;99.90;;;;;;5050677;28;20408;-53
2021/06/13 04:36:04;;;;;;;13.43;8.77;;;16.50;99.90;;;;;;5061018;28;20391;-50
2021/06/13 04:38:30;;;;;;;16.33;8.57;;;16.50;99.90;;;;;;5070674;28;20440;-50
2021/06/13 04:40:56;;;;;;;12.57;8.93;;;16.50;99.90;;;;;;5049847;28;21106;-50
2021/06/13 04:43:21;;;;;;;14.57;8.80;;;16.60;99.90;;;;;;5050459;28;20766;-50
2021/06/13 04:45:47;;;;;;;13.80;8.33;;;16.60;99.90;;;;;;5049017;28;20381;-49
2021/06/13 04:48:13;;;;;;;15.85;9.18;;;16.70;99.90;;;;;;5049584;28;20409;-50
2021/06/13 04:50:41;;;;;;;13.60;8.05;;;16.80;99.90;;;;;;5049615;28;20468;-54
2021/06/13 04:53:53;;;;;;;15.43;9.20;;;16.80;99.90;;;;;;5049966;28;20385;-49
2021/06/13 04:56:43;;;;;;;12.20;7.95;;;17.10;99.90;;;;;;5047093;28;20374;-50
2021/06/13 04:59:09;;;;;;;12.43;7.30;;;17.90;99.90;;;;;;5048821;28;20381;-50
2021/06/13 05:01:38;;;;;;;12.55;7.80;;;19.00;99.90;;;;;;5048642;28;20950;-50
2021/06/13 05:04:04;;;;;;;13.10;6.83;;;19.70;99.90;;;;;;5049792;28;20409;-50
2021/06/13 05:06:30;;;;;;;12.70;6.78;;;20.20;99.90;;;;;;5050198;28;20386;-48
2021/06/13 05:08:56;;;;;;;14.18;6.70;;;20.50;99.90;;;;;;5048820;28;20449;-49
2021/06/13 05:11:22;;;;;;;10.37;6.10;;;21.40;99.90;;;;;;5049775;28;20386;-50
2021/06/13 05:13:47;;;;;;;10.67;6.07;;;22.20;99.90;;;;;;5048659;28;20738;-50
2021/06/13 05:16:13;;;;;;;13.93;5.80;;;23.30;99.90;;;;;;5049674;28;20945;-50
2021/06/13 05:18:38;;;;;;;10.27;5.45;;;24.50;99.90;;;;;;5049240;28;20385;-53
2021/06/13 05:21:06;;;;;;;13.25;6.80;;;25.20;99.90;;;;;;5049554;28;20400;-50
2021/06/13 05:23:31;;;;;;;9.98;5.82;;;25.60;97.90;;;;;;5049978;28;20469;-49
2021/06/13 05:26:00;;;;;;;9.07;6.73;;;26.10;95.50;;;;;;5049131;28;21029;-51
2021/06/13 05:28:26;;;;;;;12.18;7.32;;;26.50;93.00;;;;;;5049853;28;20414;-50
2021/06/13 05:30:52;;;;;;;10.93;6.47;;;26.80;91.70;;;;;;5048833;28;20476;-50
2021/06/13 05:33:18;;;;;;;8.00;4.88;;;26.90;89.70;;;;;;5049597;28;20870;-50
2021/06/13 05:35:44;;;;;;;7.85;4.10;;;27.10;86.70;;;;;;5048739;28;20408;-50
2021/06/13 05:38:11;;;;;;;9.85;4.55;;;27.70;84.40;;;;;;5048742;28;20400;-50
2021/06/13 05:40:37;;;;;;;10.07;5.05;;;28.20;78.90;;;;;;5049599;28;20381;-51
2021/06/13 05:43:07;;;;;;;7.20;4.07;;;28.70;75.90;;;;;;5049324;28;20392;-51
2021/06/13 05:45:33;;;;;;;7.00;4.40;;;28.10;76.20;;;;;;5049115;28;20374;-50
2021/06/13 05:47:59;;;;;;;8.80;4.87;;;28.30;75.10;;;;;;5046106;28;20925;-50
2021/06/13 05:50:26;;;;;;;12.57;5.63;;;29.20;71.00;;;;;;5045140;28;20381;-51
2021/06/13 05:52:52;;;;;;;10.57;5.65;;;29.30;70.50;;;;;;5042637;28;20405;-50
2021/06/13 05:55:19;;;;;;;12.65;6.43;;;29.40;69.50;;;;;;5048138;28;20381;-49
2021/06/13 05:57:46;;;;;;;9.55;5.57;;;29.20;69.80;;;;;;5041628;28;20400;-51
2021/06/13 06:00:18;;;;;;;9.20;4.13;;;29.20;70.10;;;;;;5047871;28;20385;-50
2021/06/13 06:02:46;;;;;;;10.30;4.68;;;30.00;67.00;;;;;;5045891;28;20608;-51
2021/06/13 06:05:12;;;;;;;8.10;4.10;;;30.50;63.80;;;;;;5045726;28;20405;-50
2021/06/13 06:07:38;;;;;;;10.20;4.55;;;30.20;63.90;;;;;;5047878;28;20390;-54
2021/06/13 06:10:06;;;;;;;7.30;3.70;;;30.30;62.30;;;;;;5047573;28;20873;-50
2021/06/13 06:12:31;;;;;;;7.30;4.07;;;29.10;64.50;;;;;;5050062;28;20401;-49
2021/06/13 06:14:57;;;;;;;8.70;3.97;;;28.20;67.30;;;;;;5044595;28;20555;-50
2021/06/13 06:17:23;;;;;;;12.48;4.88;;;27.80;67.40;;;;;;5048320;28;20386;-49
2021/06/13 06:19:50;;;;;;;7.85;4.10;;;28.70;67.10;;;;;;5050608;28;20397;-50
2021/06/13 06:22:16;;;;;;;8.30;4.00;;;28.90;66.40;;;;;;5055000;28;20381;-49
2021/06/13 06:24:41;;;;;;;8.33;4.10;;;29.10;66.10;;;;;;5047707;28;20394;-55
2021/06/13 06:27:07;;;;;;;8.27;4.22;;;29.10;66.70;;;;;;5048641;28;20413;-52
2021/06/13 06:29:33;;;;;;;8.90;7.30;;;29.10;66.30;;;;;;5052881;28;20418;-50
2021/06/13 06:31:59;;;;;;;7.97;5.05;;;28.60;67.70;;;;;;5047554;28;20567;-50
2021/06/13 06:34:26;;;;;;;8.48;4.25;;;29.10;67.10;;;;;;5048676;28;20926;-50
2021/06/13 06:36:51;;;;;;;10.45;4.30;;;29.80;66.10;;;;;;5043695;28;20413;-50
2021/06/13 06:39:18;;;;;;;9.70;3.95;;;30.10;64.40;;;;;;5047613;28;20440;-51
2021/06/13 06:41:44;;;;;;;8.55;4.20;;;30.60;60.70;;;;;;5055119;28;20382;-50
2021/06/13 06:44:11;;;;;;;8.10;3.80;;;29.90;61.90;;;;;;5058918;28;20388;-50
2021/06/13 06:46:37;;;;;;;7.80;6.90;;;28.90;65.40;;;;;;5055834;28;20860;-50
2021/06/13 06:49:04;;;;;;;8.50;4.00;;;28.40;66.00;;;;;;5057510;28;20856;-50
2021/06/13 06:51:30;;;;;;;8.32;3.67;;;29.50;63.60;;;;;;5055913;28;20393;-50
2021/06/13 06:53:57;;;;;;;9.32;4.75;;;30.80;60.70;;;;;;5070448;28;20453;-50
2021/06/13 06:56:23;;;;;;;10.10;4.30;;;31.00;58.30;;;;;;5055794;28;20397;-50
2021/06/13 06:58:49;;;;;;;7.10;3.80;;;30.40;58.20;;;;;;5051028;28;20397;-52
2021/06/13 07:01:15;;;;;;;10.40;4.15;;;30.00;60.50;;;;;;5058992;28;20396;-52
2021/06/13 07:03:41;;;;;;;8.35;4.70;;;30.30;59.30;;;;;;5059853;28;20425;-56
2021/06/13 07:06:06;;;;;;;10.00;4.57;;;29.20;59.80;;;;;;5053623;28;20369;-51
2021/06/13 07:08:32;;;;;;;9.48;4.30;;;28.70;62.80;;;;;;5053962;28;20436;-51
2021/06/13 07:10:58;;;;;;;8.17;3.40;;;29.10;62.30;;;;;;5057296;28;20422;-52
2021/06/13 07:13:24;;;;;;;8.90;3.73;;;29.30;60.00;;;;;;5067302;28;20414;-52
2021/06/13 07:15:49;;;;;;;8.57;4.17;;;30.20;58.30;;;;;;5055796;28;20386;-51
2021/06/13 07:18:15;;;;;;;8.90;4.70;;;29.10;59.10;;;;;;5051707;28;20389;-49
2021/06/13 07:20:41;;;;;;;9.87;4.20;;;28.50;61.20;;;;;;5051242;28;20381;-57
2021/06/13 07:23:08;;;;;;;10.57;5.10;;;29.30;60.50;;;;;;5064227;28;20394;-52
2021/06/13 07:25:35;;;;;;;7.70;3.90;;;29.80;58.90;;;;;;5058059;28;20969;-52
2021/06/13 07:28:01;;;;;;;8.82;4.43;;;29.20;58.90;;;;;;5050533;28;21010;-52
2021/06/13 07:30:27;;;;;;;8.90;4.30;;;28.90;59.50;;;;;;5051612;28;20388;-52
2021/06/13 07:32:53;;;;;;;7.40;4.40;;;28.60;59.70;;;;;;5052165;28;20867;-50
2021/06/13 07:35:19;;;;;;;7.70;4.00;;;28.20;60.90;;;;;;5056360;28;20417;-50
2021/06/13 07:37:45;;;;;;;8.07;3.60;;;28.00;60.50;;;;;;5056360;28;21128;-49
2021/06/13 07:40:12;;;;;;;14.77;4.85;;;28.10;61.00;;;;;;5060883;28;20393;-51
2021/06/13 07:42:38;;;;;;;17.00;6.38;;;28.70;61.50;;;;;;5058451;28;20478;-56
2021/06/13 07:45:07;;;;;;;13.38;5.45;;;30.50;57.90;;;;;;5059638;28;20867;-53
2021/06/13 07:47:33;;;;;;;8.15;4.28;;;31.40;55.50;;;;;;5061879;28;20389;-49
2021/06/13 07:49:59;;;;;;;10.20;4.30;;;31.60;55.40;;;;;;5050306;28;20520;-49
2021/06/13 07:52:25;;;;;;;11.93;4.53;;;30.80;55.10;;;;;;5062078;28;20475;-49
2021/06/13 07:54:51;;;;;;;9.80;4.80;;;30.70;56.30;;;;;;5061391;28;20447;-50
2021/06/13 07:57:17;;;;;;;9.48;4.53;;;31.20;56.40;;;;;;5060075;28;20399;-50
2021/06/13 07:59:43;;;;;;;8.00;4.40;;;32.00;54.60;;;;;;5050848;28;20392;-54
2021/06/13 08:02:11;;;;;;;10.40;4.80;;;31.80;54.80;;;;;;5048414;28;20388;-50
2021/06/13 08:04:38;;;;;;;9.50;6.60;;;30.80;56.10;;;;;;5053291;28;20418;-52
2021/06/13 08:07:04;;;;;;;9.65;4.70;;;30.10;57.20;;;;;;5058681;28;20436;-49
2021/06/13 08:09:30;;;;;;;11.00;4.40;;;29.70;58.50;;;;;;5053105;28;20428;-50
2021/06/13 08:11:59;;;;;;;8.67;4.90;;;30.60;56.90;;;;;;5053739;28;20385;-51
2021/06/13 08:14:27;;;;;;;9.37;4.60;;;30.70;56.20;;;;;;5056204;28;20427;-49
2021/06/13 08:16:53;;;;;;;9.88;4.40;;;30.40;57.20;;;;;;5065465;28;20384;-49
2021/06/13 08:19:19;;;;;;;11.20;4.32;;;31.20;55.10;;;;;;5054264;28;20396;-50
2021/06/13 08:21:44;;;;;;;9.32;4.43;;;31.50;54.70;;;;;;5050040;28;20446;-50
2021/06/13 08:24:10;;;;;;;8.70;4.60;;;31.30;55.00;;;;;;5064112;28;20481;-50
2021/06/13 08:26:36;;;;;;;8.30;5.10;;;31.30;54.50;;;;;;5070775;28;20372;-50
2021/06/13 08:29:03;;;;;;;10.90;4.70;;;30.50;55.50;;;;;;5070196;28;20884;-49
2021/06/13 08:31:30;;;;;;;8.37;4.90;;;29.90;56.20;;;;;;5065476;28;20386;-49
2021/06/13 08:33:56;;;;;;;11.57;4.70;;;29.10;57.70;;;;;;5053818;28;20400;-49
2021/06/13 08:36:22;;;;;;;11.10;4.97;;;29.30;57.50;;;;;;5052176;28;20370;-50
2021/06/13 08:38:49;;;;;;;7.40;4.50;;;30.00;57.10;;;;;;5050078;28;20387;-49
2021/06/13 08:41:16;;;;;;;8.57;4.57;;;30.30;56.10;;;;;;5050015;28;20455;-50
2021/06/13 08:43:42;;;;;;;10.70;4.50;;;30.50;56.00;;;;;;5042129;28;20416;-50
2021/06/13 08:46:08;;;;;;;8.20;4.50;;;30.90;55.70;;;;;;5049425;28;20711;-51
2021/06/13 08:48:34;;;;;;;9.95;5.20;;;30.90;54.90;;;;;;5050148;28;20459;-50
2021/06/13 08:51:02;;;;;;;8.05;4.68;;;30.20;55.50;;;;;;5049505;28;20389;-50
2021/06/13 08:53:28;;;;;;;9.98;4.60;;;30.90;55.40;;;;;;5050553;28;20413;-51
2021/06/13 08:55:54;;;;;;;8.82;5.10;;;30.80;54.80;;;;;;5048932;28;20873;-51
2021/06/13 08:58:20;;;;;;;10.03;4.80;;;30.30;55.30;;;;;;5049954;28;20377;-51
2021/06/13 09:00:47;;;;;;;7.65;3.97;;;31.00;54.20;;;;;;5049167;28;20432;-51
2021/06/13 09:03:13;;;;;;;9.95;4.72;;;32.70;52.00;;;;;;5050110;28;20368;-50
2021/06/13 09:05:40;;;;;;;8.00;4.00;;;32.50;51.80;;;;;;5049556;28;20413;-51
2021/06/13 09:08:13;;;;;;;9.35;4.50;;;31.80;53.50;;;;;;5047498;28;20428;-50
2021/06/13 09:10:42;;;;;;;9.70;4.80;;;32.00;53.20;;;;;;5050978;28;20478;-50
2021/06/13 09:13:21;;;;;;;9.38;4.70;;;32.70;51.60;;;;;;5062855;28;20388;-51
2021/06/13 09:15:53;;;;;;;7.28;4.40;;;32.30;51.50;;;;;;5068908;28;20398;-52
2021/06/13 09:18:30;;;;;;;7.72;4.22;;;31.60;51.70;;;;;;5059529;28;20475;-51
2021/06/13 09:20:59;;;;;;;7.53;3.85;;;31.40;52.20;;;;;;5054520;28;20525;-50
2021/06/13 09:23:29;;;;;;;10.20;4.25;;;31.80;52.00;;;;;;5048380;28;20444;-51
2021/06/13 09:26:04;;;;;;;8.10;4.15;;;32.30;51.00;;;;;;5047589;28;20381;-51
2021/06/13 09:28:35;;;;;;;7.45;4.18;;;32.50;50.30;;;;;;5029095;28;20880;-51
2021/06/13 09:31:02;;;;;;;9.70;3.93;;;31.70;51.00;;;;;;5043284;28;20759;-51
2021/06/13 09:33:31;;;;;;;7.45;4.18;;;32.20;51.20;;;;;;5055621;28;20895;-51
2021/06/13 09:35:58;;;;;;;8.55;4.13;;;31.70;51.10;;;;;;5064207;28;20376;-50
2021/06/13 09:38:32;;;;;;;8.10;4.13;;;32.30;50.80;;;;;;5069019;28;20390;-51
2021/06/13 09:41:00;;;;;;;7.00;4.00;;;32.70;49.60;;;;;;5068344;28;20473;-51
2021/06/13 09:43:36;;;;;;;7.90;4.30;;;32.10;50.80;;;;;;5069429;28;20387;-50
2021/06/13 09:46:11;;;;;;;8.70;4.28;;;31.50;52.10;;;;;;5068620;28;20466;-50
2021/06/13 09:49:22;;;;;;;8.50;4.50;;;31.70;51.20;;;;;;5050320;28;20403;-51
2021/06/13 09:51:53;;;;;;;9.35;3.97;;;31.80;52.30;;;;;;5048929;28;20422;-50
2021/06/13 09:54:21;;;;;;;8.15;4.30;;;32.80;50.50;;;;;;5060513;28;20388;-52
2021/06/13 09:56:47;;;;;;;9.45;4.70;;;32.40;51.10;;;;;;5065808;28;20399;-51
2021/06/13 09:59:33;;;;;;;8.30;4.60;;;31.60;51.60;;;;;;5049089;28;20871;-53
2021/06/13 10:02:04;;;;;;;8.27;4.07;;;30.90;52.40;;;;;;5048432;28;20381;-51
2021/06/13 10:04:39;;;;;;;7.15;3.88;;;31.20;52.10;;;;;;5050295;28;20731;-51
2021/06/13 10:07:14;;;;;;;8.60;4.30;;;31.60;51.70;;;;;;5048353;28;20413;-51
2021/06/13 10:09:41;;;;;;;8.18;4.10;;;31.50;50.30;;;;;;5049047;28;20503;-51
2021/06/13 10:12:11;;;;;;;8.35;4.20;;;31.40;50.90;;;;;;5049041;28;20436;-52
2021/06/13 10:14:38;;;;;;;8.23;4.00;;;31.40;52.00;;;;;;5049205;28;20396;-51
2021/06/13 10:17:04;;;;;;;8.80;3.85;;;32.20;50.90;;;;;;5048004;28;20519;-51
2021/06/13 10:19:43;;;;;;;7.17;4.30;;;32.10;50.70;;;;;;5049119;28;20712;-52
2021/06/13 10:22:11;;;;;;;8.27;4.20;;;31.90;51.10;;;;;;5049079;28;20386;-50
2021/06/13 10:24:41;;;;;;;7.82;3.88;;;31.20;52.50;;;;;;5049801;28;20399;-51
2021/06/13 10:27:10;;;;;;;7.70;3.80;;;31.70;51.10;;;;;;5052488;28;20416;-51
2021/06/13 10:29:38;;;;;;;8.07;4.03;;;31.30;50.90;;;;;;5052802;28;20412;-50
2021/06/13 10:32:06;;;;;;;7.00;3.53;;;31.00;51.60;;;;;;5053045;28;20381;-50
2021/06/13 10:34:32;;;;;;;8.13;4.18;;;29.90;53.20;;;;;;5052910;28;20447;-50
2021/06/13 10:37:00;;;;;;;7.10;4.38;;;29.40;54.80;;;;;;5052701;28;20382;-50
2021/06/13 10:39:29;;;;;;;9.10;5.07;;;28.90;56.00;;;;;;5052561;28;20388;-50
2021/06/13 10:41:55;;;;;;;8.15;6.15;;;28.50;56.50;;;;;;5052004;28;20366;-50
2021/06/13 10:44:27;;;;;;;10.88;5.68;;;28.00;57.90;;;;;;5052965;28;20373;-51
2021/06/13 10:47:11;;;;;;;9.73;5.60;;;28.00;56.80;;;;;;5052329;28;20476;-50
2021/06/13 10:49:40;;;;;;;10.70;7.15;;;27.30;58.70;;;;;;5052745;28;20528;-50
2021/06/13 10:52:12;;;;;;;7.65;6.10;;;26.70;59.20;;;;;;5051848;28;20856;-52
2021/06/13 10:54:49;;;;;;;7.85;5.50;;;26.40;59.50;;;;;;5052991;28;20476;-51
2021/06/13 10:57:14;;;;;;;10.20;5.80;;;26.30;61.80;;;;;;5052210;28;20416;-51
2021/06/13 10:59:43;;;;;;;10.27;5.87;;;26.20;62.70;;;;;;5052804;28;20381;-51
2021/06/13 11:02:19;;;;;;;7.97;5.80;;;26.10;64.00;;;;;;5033112;28;20379;-51
2021/06/13 11:05:00;;;;;;;8.30;5.90;;;26.10;62.90;;;;;;5031513;28;20505;-55
2021/06/13 11:07:39;;;;;;;9.77;5.72;;;26.20;62.40;;;;;;5032039;28;20399;-51
2021/06/13 11:10:09;;;;;;;9.43;5.28;;;26.10;63.20;;;;;;5031725;28;21022;-50
2021/06/13 11:12:49;;;;;;;8.02;5.10;;;26.40;61.40;;;;;;5032299;28;20425;-51
2021/06/13 11:15:36;;;;;;;8.37;5.60;;;26.80;60.80;;;;;;5031826;28;20478;-53
2021/06/13 11:18:03;;;;;;;7.63;4.90;;;26.40;63.30;;;;;;5031636;28;20398;-51
2021/06/13 11:20:34;;;;;;;8.95;5.38;;;26.00;62.20;;;;;;5032551;28;20389;-51
2021/06/13 11:23:15;;;;;;;8.27;5.18;;;25.60;63.80;;;;;;5031428;28;20387;-52
2021/06/13 11:25:41;;;;;;;6.88;4.85;;;25.80;63.80;;;;;;5031845;28;20578;-51
2021/06/13 11:28:22;;;;;;;8.43;4.95;;;25.90;62.30;;;;;;5030681;28;20446;-51
2021/06/13 11:30:52;;;;;;;8.80;4.90;;;26.00;62.80;;;;;;5031359;28;20395;-53
2021/06/13 11:33:38;;;;;;;7.47;5.10;;;26.10;62.60;;;;;;5031839;28;20826;-50
2021/06/13 11:36:17;;;;;;;8.07;4.60;;;26.30;61.90;;;;;;5030848;28;20392;-50
2021/06/13 11:38:47;;;;;;;7.55;5.00;;;26.50;57.90;;;;;;5031559;28;20395;-51
2021/06/13 11:41:35;;;;;;;8.80;5.30;;;26.60;58.00;;;;;;5031768;28;20788;-50
2021/06/13 11:44:06;;;;;;;7.97;4.80;;;26.70;59.70;;;;;;5030817;28;20387;-50
2021/06/13 11:46:33;;;;;;;8.43;5.07;;;26.80;58.80;;;;;;5031765;28;20395;-50
2021/06/13 11:49:03;;;;;;;7.07;4.90;;;26.50;59.70;;;;;;5030636;28;20777;-50
2021/06/13 11:51:29;;;;;;;8.20;5.10;;;26.50;59.70;;;;;;5030894;28;20842;-51
2021/06/13 11:54:05;;;;;;;6.85;4.57;;;26.70;60.00;;;;;;5030635;28;20464;-50
2021/06/13 11:58:58;;;;;;;7.63;5.30;;;25.80;60.60;;;;;;5030654;28;20386;-54
2021/06/13 12:01:24;;;;;;;7.18;5.00;;;25.80;62.30;;;;;;5045356;28;20381;-51
2021/06/13 12:03:50;;;;;;;8.25;5.05;;;26.00;63.10;;;;;;5050002;28;20767;-51
2021/06/13 12:06:18;;;;;;;7.35;4.80;;;26.00;61.00;;;;;;5050937;28;20457;-50
2021/06/13 12:08:47;;;;;;;6.80;4.70;;;26.40;60.60;;;;;;5051119;28;20925;-53
2021/06/13 12:11:43;;;;;;;8.40;4.40;;;26.70;59.00;;;;;;5050974;28;20377;-52
2021/06/13 12:14:24;;;;;;;7.95;4.35;;;26.80;59.60;;;;;;5050852;28;20377;-51
2021/06/13 12:16:55;;;;;;;6.15;3.90;;;27.00;58.50;;;;;;5049973;28;20390;-51
2021/06/13 12:19:39;;;;;;;8.17;4.37;;;27.20;57.30;;;;;;5050809;28;20920;-49
2021/06/13 12:27:50;;;;;;;8.50;5.30;;;26.60;57.70;;;;;;5050604;28;20385;-49
2021/06/13 12:30:27;;;;;;;7.70;5.30;;;26.60;57.40;;;;;;5050676;28;20393;-51
2021/06/13 12:32:57;;;;;;;7.05;4.32;;;26.40;58.00;;;;;;5048630;28;20740;-50
2021/06/13 12:35:26;;;;;;;8.02;3.90;;;26.60;57.90;;;;;;5050767;28;20461;-50
2021/06/13 12:38:05;;;;;;;7.22;4.40;;;27.00;57.00;;;;;;5049738;28;20384;-50
2021/06/13 12:40:36;;;;;;;6.80;4.30;;;27.20;56.10;;;;;;5050296;28;20381;-50
2021/06/13 12:43:04;;;;;;;8.20;4.60;;;26.90;56.70;;;;;;5050171;28;20479;-50
2021/06/13 12:45:29;;;;;;;9.30;4.90;;;27.00;57.20;;;;;;5050253;28;20395;-50
2021/06/13 12:48:01;;;;;;;6.32;4.05;;;26.90;56.20;;;;;;5049586;28;20468;-51
2021/06/13 12:50:33;;;;;;;6.53;4.43;;;26.80;58.00;;;;;;5050649;28;20430;-50
2021/06/13 12:53:00;;;;;;;7.50;4.20;;;26.80;56.40;;;;;;5049729;28;20956;-51
2021/06/13 12:55:38;;;;;;;7.35;4.85;;;26.60;57.10;;;;;;5050345;28;20756;-50
2021/06/13 12:58:08;;;;;;;8.20;4.25;;;26.90;55.80;;;;;;5050097;28;20401;-51
2021/06/13 13:00:34;;;;;;;5.85;4.53;;;26.60;55.70;;;;;;5050099;28;20385;-50